JAF51E GVAC-EBBR
Flight info
| Callsign | JAF51E |
|---|---|
| Flight time | N/A |
| Altitude | 35000 |
| Route | DIMKI1A DIMKI DCT IPERA N873 ODEGI/N0453F360 N873 SAMAR DCT BEXAL DCT ZIFOG DCT DEMOS/N0442F380 DCT LOTEE DCT AZFIC UN741 ERIGA/N0433F340 DCT GODIX DCT PODEM UN873 BAZOS DCT BELDI DCT VEKIN Z173 ARVOL |
| Aircraft | B38M/M-SDE1FGHILORVWXY/HB1 |
Departure
| Time | 2026-04-26 10:21 |
|---|---|
| Airport | Amílcar Cabral International Airport (GVAC) |
Arrival
| Time | N/A |
|---|---|
| Airport | Brussels Airport (EBBR) |
| Time | Latitude | Longitude | Altitude | Speed | Heading |
|---|---|---|---|---|---|
| 2026-04-26 10:10 | 16.73430 | -22.94512 | 153 ft | 0 kts | 88° |
| 2026-04-26 10:12 | 16.73429 | -22.94516 | 153 ft | 3 kts | 88° |
| 2026-04-26 10:12 | 16.73430 | -22.94544 | 153 ft | 4 kts | 97° |
| 2026-04-26 10:12 | 16.73436 | -22.94571 | 153 ft | 4 kts | 113° |
| 2026-04-26 10:13 | 16.73450 | -22.94592 | 153 ft | 4 kts | 153° |
| 2026-04-26 10:13 | 16.73461 | -22.94595 | 153 ft | 1 kts | 179° |
| 2026-04-26 10:17 | 16.73459 | -22.94595 | 153 ft | 1 kts | 179° |
| 2026-04-26 10:17 | 16.73434 | -22.94595 | 153 ft | 6 kts | 179° |
| 2026-04-26 10:17 | 16.73378 | -22.94594 | 153 ft | 10 kts | 179° |
| 2026-04-26 10:18 | 16.73291 | -22.94593 | 153 ft | 15 kts | 179° |
| 2026-04-26 10:18 | 16.73168 | -22.94592 | 153 ft | 20 kts | 179° |
| 2026-04-26 10:18 | 16.73066 | -22.94646 | 153 ft | 20 kts | 253° |
| 2026-04-26 10:18 | 16.72947 | -22.94686 | 153 ft | 22 kts | 181° |
| 2026-04-26 10:19 | 16.72776 | -22.94682 | 153 ft | 26 kts | 180° |
| 2026-04-26 10:19 | 16.72587 | -22.94688 | 152 ft | 28 kts | 179° |
| 2026-04-26 10:19 | 16.72419 | -22.94697 | 152 ft | 15 kts | 217° |
| 2026-04-26 10:19 | 16.72403 | -22.94801 | 151 ft | 16 kts | 270° |
| 2026-04-26 10:20 | 16.72439 | -22.94890 | 152 ft | 13 kts | 351° |
| 2026-04-26 10:20 | 16.72533 | -22.94889 | 152 ft | 17 kts | 359° |
| 2026-04-26 10:20 | 16.72650 | -22.94889 | 152 ft | 54 kts | 360° |
| 2026-04-26 10:20 | 16.73174 | -22.94892 | 154 ft | 117 kts | 360° |
| 2026-04-26 10:21 | 16.74204 | -22.94892 | 180 ft | 173 kts | 2° |
| 2026-04-26 10:21 | 16.75490 | -22.94878 | 696 ft | 194 kts | 2° |
| 2026-04-26 10:21 | 16.76869 | -22.94950 | 1568 ft | 201 kts | 358° |
| 2026-04-26 10:21 | 16.78360 | -22.95069 | 2093 ft | 227 kts | 358° |
| 2026-04-26 10:22 | 16.79942 | -22.95165 | 2968 ft | 236 kts | 359° |
| 2026-04-26 10:22 | 16.81607 | -22.95217 | 3825 ft | 246 kts | 360° |
| 2026-04-26 10:22 | 16.83367 | -22.95218 | 4588 ft | 257 kts | 1° |
| 2026-04-26 10:22 | 16.85143 | -22.95171 | 5534 ft | 263 kts | 1° |
| 2026-04-26 10:23 | 16.87010 | -22.95129 | 6311 ft | 273 kts | 1° |
| 2026-04-26 10:23 | 16.88877 | -22.95090 | 7154 ft | 278 kts | 0° |
| 2026-04-26 10:23 | 16.90835 | -22.95040 | 7977 ft | 285 kts | 3° |
| 2026-04-26 10:23 | 16.92750 | -22.94456 | 8755 ft | 293 kts | 28° |
| 2026-04-26 10:24 | 16.94454 | -22.93277 | 9469 ft | 301 kts | 32° |
| 2026-04-26 10:24 | 16.96209 | -22.92040 | 10179 ft | 307 kts | 32° |
| 2026-04-26 10:24 | 16.98019 | -22.90752 | 10675 ft | 323 kts | 32° |
| 2026-04-26 10:24 | 16.99925 | -22.89386 | 11152 ft | 338 kts | 32° |
| 2026-04-26 10:25 | 17.01892 | -22.87969 | 11670 ft | 349 kts | 32° |
| 2026-04-26 10:25 | 17.03917 | -22.86508 | 12279 ft | 357 kts | 32° |
| 2026-04-26 10:25 | 17.05277 | -22.85527 | 12741 ft | 360 kts | 32° |